createdAt,value
2019-03-25T00:00:10.085Z,27.40
2019-03-25T00:02:40.977Z,16.67
2019-03-25T00:05:10.317Z,29.90
2019-03-25T00:07:39.577Z,24.43
2019-03-25T00:10:08.994Z,17.40
2019-03-25T00:12:38.282Z,26.93
2019-03-25T00:15:07.698Z,28.53
2019-03-25T00:17:36.988Z,33.63
2019-03-25T00:20:06.772Z,20.27
2019-03-25T00:22:36.047Z,22.43
2019-03-25T00:25:06.385Z,23.27
2019-03-25T00:27:35.652Z,30.10
2019-03-25T00:30:05.952Z,21.37
2019-03-25T00:32:35.236Z,21.07
2019-03-25T00:35:05.940Z,24.70
2019-03-25T00:37:35.282Z,26.40
2019-03-25T00:40:05.480Z,20.90
2019-03-25T00:42:34.821Z,18.80
2019-03-25T00:45:05.532Z,19.57
2019-03-25T00:47:34.820Z,23.93
2019-03-25T00:50:05.933Z,19.83
2019-03-25T00:52:35.274Z,25.43
2019-03-25T00:55:05.977Z,19.93
2019-03-25T00:57:36.232Z,27.33
2019-03-25T01:00:08.031Z,29.20
2019-03-25T01:02:37.308Z,26.30
2019-03-25T01:05:07.014Z,15.43
2019-03-25T01:07:36.284Z,16.53
2019-03-25T01:10:07.293Z,28.37
2019-03-25T01:12:36.577Z,18.10
2019-03-25T01:15:07.745Z,24.33
2019-03-25T01:17:37.012Z,25.87
2019-03-25T01:20:06.984Z,34.77
2019-03-25T01:22:36.307Z,26.70
2019-03-25T01:25:08.797Z,21.00
2019-03-25T01:27:38.069Z,20.90
2019-03-25T01:30:09.186Z,23.63
2019-03-25T01:32:38.520Z,25.37
2019-03-25T01:35:07.865Z,20.97
2019-03-25T01:37:37.180Z,25.67
2019-03-25T01:40:07.596Z,20.77
2019-03-25T01:42:36.872Z,31.93
2019-03-25T01:45:06.872Z,28.80
2019-03-25T01:47:36.190Z,23.73
2019-03-25T01:50:07.196Z,25.07
2019-03-25T01:52:36.464Z,24.13
2019-03-25T01:55:13.262Z,19.87
2019-03-25T01:57:37.840Z,22.77
2019-03-25T02:00:08.359Z,31.60
2019-03-25T02:02:37.624Z,29.70
2019-03-25T02:05:07.431Z,33.60
2019-03-25T02:07:37.007Z,27.43
2019-03-25T02:10:07.819Z,24.83
2019-03-25T02:12:37.092Z,20.17
2019-03-25T02:15:06.804Z,24.00
2019-03-25T02:17:36.077Z,22.80
2019-03-25T02:20:06.708Z,18.10
2019-03-25T02:22:36.035Z,23.73
2019-03-25T02:25:06.228Z,27.73
2019-03-25T02:27:36.461Z,28.47
2019-03-25T02:30:07.496Z,21.97
2019-03-25T02:32:36.745Z,28.77
2019-03-25T02:35:06.896Z,21.03
2019-03-25T02:37:36.163Z,21.77
2019-03-25T02:40:06.685Z,24.47
2019-03-25T02:42:35.949Z,28.50
2019-03-25T02:45:07.169Z,30.33
2019-03-25T02:47:36.445Z,25.70
2019-03-25T02:50:06.184Z,25.10
2019-03-25T02:52:35.476Z,19.63
2019-03-25T02:55:07.286Z,23.07
2019-03-25T02:57:37.532Z,24.17
2019-03-25T03:00:09.020Z,22.00
2019-03-25T03:02:38.285Z,23.03
2019-03-25T03:05:08.022Z,15.03
2019-03-25T03:07:37.284Z,18.87
2019-03-25T03:10:07.608Z,16.60
2019-03-25T03:12:36.865Z,27.43
2019-03-25T03:15:07.093Z,25.67
2019-03-25T03:17:36.354Z,16.10
2019-03-25T03:20:07.199Z,22.43
2019-03-25T03:22:36.461Z,18.13
2019-03-25T03:25:05.810Z,19.60
2019-03-25T03:27:35.060Z,23.20
2019-03-25T03:30:06.344Z,20.30
2019-03-25T03:32:35.610Z,21.00
2019-03-25T03:35:06.751Z,17.33
2019-03-25T03:37:36.082Z,24.03
2019-03-25T03:40:06.977Z,22.70
2019-03-25T03:42:36.309Z,19.57
2019-03-25T03:45:06.699Z,23.00
2019-03-25T03:47:35.960Z,21.03
2019-03-25T03:50:07.278Z,14.83
2019-03-25T03:52:36.611Z,12.53
2019-03-25T03:55:06.669Z,17.33
2019-03-25T03:57:36.289Z,30.17
2019-03-25T04:00:07.556Z,20.10
2019-03-25T04:02:36.856Z,21.37
2019-03-25T04:05:06.200Z,17.73
2019-03-25T04:07:35.497Z,37.80
2019-03-25T04:10:07.048Z,18.20
2019-03-25T04:12:36.313Z,19.50
2019-03-25T04:15:06.723Z,20.67
2019-03-25T04:17:36.019Z,23.33
2019-03-25T04:20:07.387Z,22.53
2019-03-25T04:22:36.670Z,24.50
2019-03-25T04:25:06.581Z,18.37
2019-03-25T04:27:35.849Z,24.27
2019-03-25T04:30:05.660Z,31.73
2019-03-25T04:32:34.926Z,21.53
2019-03-25T04:35:04.825Z,17.27
2019-03-25T04:37:34.112Z,21.47
2019-03-25T04:40:05.675Z,20.67
2019-03-25T04:42:34.946Z,14.73
2019-03-25T04:45:05.555Z,24.87
2019-03-25T04:47:34.820Z,16.90
2019-03-25T04:50:05.661Z,17.47
2019-03-25T04:52:34.937Z,12.40
2019-03-25T04:55:05.461Z,20.60
2019-03-25T04:57:35.871Z,12.57
2019-03-25T05:00:05.981Z,11.63
2019-03-25T05:02:35.251Z,16.67
2019-03-25T05:05:06.161Z,8.67
2019-03-25T05:07:35.473Z,11.90
2019-03-25T05:10:06.752Z,13.80
2019-03-25T05:12:37.087Z,14.03
2019-03-25T05:15:06.689Z,15.87
2019-03-25T05:17:36.037Z,11.60
2019-03-25T05:20:06.242Z,14.63
2019-03-25T05:22:35.515Z,10.77
2019-03-25T05:25:06.221Z,20.40
2019-03-25T05:27:35.536Z,16.00
2019-03-25T05:30:07.281Z,12.93
2019-03-25T05:32:36.559Z,13.23
2019-03-25T05:35:07.169Z,17.17
2019-03-25T05:37:36.437Z,17.60
2019-03-25T05:40:05.950Z,12.27
2019-03-25T05:42:35.225Z,20.30
2019-03-25T05:45:06.336Z,9.97
2019-03-25T05:47:35.605Z,16.73
2019-03-25T05:50:08.858Z,17.87
2019-03-25T05:52:37.581Z,11.67
2019-03-25T05:55:07.776Z,13.17
2019-03-25T05:57:37.076Z,11.10
2019-03-25T06:00:06.781Z,12.20
2019-03-25T06:02:36.066Z,14.17
2019-03-25T06:05:06.469Z,10.23
2019-03-25T06:07:35.968Z,14.23
2019-03-25T06:10:07.044Z,8.57
2019-03-25T06:12:36.336Z,16.67
2019-03-25T06:15:06.746Z,13.90
2019-03-25T06:17:36.272Z,15.33
2019-03-25T06:20:06.688Z,20.13
2019-03-25T06:22:35.952Z,23.40
2019-03-25T06:25:07.258Z,10.90
2019-03-25T06:27:36.511Z,12.77
2019-03-25T06:30:08.897Z,17.00
2019-03-25T06:32:38.478Z,21.60
2019-03-25T06:35:09.240Z,18.77
2019-03-25T06:37:38.701Z,14.60
2019-03-25T06:40:09.480Z,25.20
2019-03-25T06:42:38.749Z,15.13
2019-03-25T06:45:09.665Z,25.57
2019-03-25T06:47:38.932Z,24.00
2019-03-25T06:50:08.841Z,20.60
2019-03-25T06:52:38.105Z,19.97
2019-03-25T06:55:08.421Z,25.17
2019-03-25T06:57:38.811Z,23.30
2019-03-25T07:00:09.525Z,27.33
2019-03-25T07:02:38.868Z,27.87
2019-03-25T07:05:08.576Z,20.47
2019-03-25T07:07:37.838Z,20.77
2019-03-25T07:10:07.456Z,24.37
2019-03-25T07:12:37.564Z,21.57
2019-03-25T07:15:08.949Z,21.53
2019-03-25T07:17:38.693Z,22.43
2019-03-25T07:20:08.416Z,20.57
2019-03-25T07:22:37.682Z,21.10
2019-03-25T07:25:08.108Z,25.17
2019-03-25T07:27:37.539Z,27.57
2019-03-25T07:30:11.303Z,22.43
2019-03-25T07:32:40.162Z,26.20
2019-03-25T07:35:09.677Z,27.87
2019-03-25T07:37:38.936Z,26.53
2019-03-25T07:40:08.952Z,22.37
2019-03-25T07:42:38.215Z,24.50
2019-03-25T07:45:09.187Z,28.40
2019-03-25T07:47:38.453Z,28.00
2019-03-25T07:50:08.367Z,26.47
2019-03-25T07:52:37.634Z,31.10
2019-03-25T07:55:07.175Z,24.10
2019-03-25T07:57:47.304Z,20.10
2019-03-25T08:00:15.082Z,21.60
2019-03-25T08:02:44.324Z,27.60
2019-03-25T08:05:13.674Z,30.40
2019-03-25T08:07:42.942Z,26.37
2019-03-25T08:10:12.448Z,31.23
2019-03-25T08:12:41.720Z,25.10
2019-03-25T08:15:11.345Z,20.63
2019-03-25T08:17:40.586Z,29.00
2019-03-25T08:20:09.992Z,28.67
2019-03-25T08:22:39.264Z,27.33
2019-03-25T08:25:08.776Z,26.40
2019-03-25T08:27:38.045Z,26.87
2019-03-25T08:30:08.465Z,25.77
2019-03-25T08:32:37.737Z,31.27
2019-03-25T08:35:07.380Z,40.37
2019-03-25T08:37:36.653Z,19.60
2019-03-25T08:40:07.529Z,29.20
2019-03-25T08:42:36.795Z,32.43
2019-03-25T08:45:07.196Z,32.20
2019-03-25T08:47:36.480Z,27.10
2019-03-25T08:50:08.548Z,26.30
2019-03-25T08:52:37.834Z,33.30
2019-03-25T08:55:07.343Z,26.57
2019-03-25T08:57:36.623Z,13.10
2019-03-25T09:00:08.423Z,17.53
2019-03-25T09:02:37.688Z,21.97
2019-03-25T09:05:08.373Z,26.43
2019-03-25T09:07:37.672Z,38.77
2019-03-25T09:10:10.374Z,23.40
2019-03-25T09:12:39.731Z,27.57
2019-03-25T09:15:10.737Z,20.07
2019-03-25T09:17:40.010Z,15.37
2019-03-25T09:20:11.340Z,18.63
2019-03-25T09:22:40.612Z,16.97
2019-03-25T09:25:11.296Z,18.53
2019-03-25T09:27:40.572Z,19.43
2019-03-25T09:30:10.653Z,13.77
2019-03-25T09:32:39.928Z,13.60
2019-03-25T09:35:10.503Z,14.20
2019-03-25T09:37:39.768Z,15.67
2019-03-25T09:40:10.176Z,11.57
2019-03-25T09:42:39.448Z,11.10
2019-03-25T09:45:11.320Z,13.93
2019-03-25T09:47:40.596Z,10.77
2019-03-25T09:50:10.569Z,11.70
2019-03-25T09:52:39.844Z,12.87
2019-03-25T09:55:09.281Z,14.37
2019-03-25T09:57:39.537Z,15.67
2019-03-25T10:00:11.469Z,10.87
2019-03-25T10:02:40.761Z,17.83
2019-03-25T10:05:10.043Z,16.33
2019-03-25T10:07:39.313Z,11.97
2019-03-25T10:10:09.004Z,6.90
2019-03-25T10:12:38.332Z,14.80
2019-03-25T10:15:09.241Z,18.30
2019-03-25T10:17:38.506Z,17.43
2019-03-25T10:20:07.909Z,11.77
2019-03-25T10:22:37.181Z,15.80
2019-03-25T10:25:07.785Z,15.00
2019-03-25T10:27:37.160Z,22.77
2019-03-25T10:30:11.944Z,18.13
2019-03-25T10:32:41.205Z,11.53
2019-03-25T10:35:11.018Z,11.27
2019-03-25T10:37:40.282Z,15.00
2019-03-25T10:40:10.090Z,11.93
2019-03-25T10:42:39.359Z,7.97
2019-03-25T10:45:09.832Z,9.73
2019-03-25T10:47:39.089Z,9.90
2019-03-25T10:50:08.606Z,7.27
2019-03-25T10:52:37.949Z,3.37
2019-03-25T10:55:07.940Z,11.20
2019-03-25T10:57:37.413Z,4.97
2019-03-25T11:00:11.438Z,6.27
2019-03-25T11:02:40.801Z,6.97
2019-03-25T11:05:11.869Z,10.70
2019-03-25T11:10:10.964Z,12.33
2019-03-25T11:12:40.293Z,11.03
2019-03-25T11:15:11.712Z,12.77
2019-03-25T11:17:40.976Z,14.63
2019-03-25T11:20:11.196Z,14.27
2019-03-25T11:22:40.461Z,16.30
2019-03-25T11:25:10.579Z,13.23
2019-03-25T11:27:39.849Z,13.03
2019-03-25T11:30:11.728Z,8.77
2019-03-25T11:32:40.997Z,19.13
2019-03-25T11:35:10.916Z,12.87
2019-03-25T11:37:40.177Z,14.13
2019-03-25T11:40:10.184Z,14.23
2019-03-25T11:42:39.459Z,10.90
2019-03-25T11:45:10.075Z,9.80
2019-03-25T11:47:39.412Z,10.00
2019-03-25T11:50:09.031Z,11.53
2019-03-25T11:52:38.292Z,12.33
2019-03-25T11:55:08.004Z,7.27
2019-03-25T11:57:37.268Z,15.50
2019-03-25T12:00:08.058Z,5.53
2019-03-25T12:02:37.324Z,11.93
2019-03-25T12:05:07.520Z,6.20
2019-03-25T12:07:36.792Z,6.50
2019-03-25T12:10:06.904Z,6.23
2019-03-25T12:12:36.185Z,11.47
2019-03-25T12:15:06.993Z,10.53
2019-03-25T12:17:36.264Z,7.67
2019-03-25T12:20:06.774Z,8.00
2019-03-25T12:22:36.045Z,21.43
2019-03-25T12:25:06.745Z,12.47
2019-03-25T12:27:36.023Z,14.27
2019-03-25T12:30:08.138Z,16.57
2019-03-25T12:32:37.409Z,13.63
2019-03-25T12:35:08.121Z,13.40
2019-03-25T12:37:37.393Z,16.13
2019-03-25T12:40:08.026Z,15.13
2019-03-25T12:42:37.552Z,12.60
2019-03-25T12:45:10.996Z,19.53
2019-03-25T12:47:40.272Z,13.43
2019-03-25T12:50:09.984Z,12.93
2019-03-25T12:52:39.269Z,17.30
2019-03-25T12:55:08.708Z,13.77
2019-03-25T12:57:37.988Z,13.03
2019-03-25T13:00:07.892Z,18.90
2019-03-25T13:02:37.174Z,8.20
2019-03-25T13:05:06.973Z,4.03
2019-03-25T13:07:36.237Z,3.03
2019-03-25T13:10:06.541Z,6.57
2019-03-25T13:12:35.824Z,6.50
2019-03-25T13:15:07.109Z,4.93
2019-03-25T13:17:36.374Z,9.20
2019-03-25T13:20:06.520Z,13.03
2019-03-25T13:22:35.802Z,7.87
2019-03-25T13:25:06.508Z,12.07
2019-03-25T13:27:36.762Z,10.70
2019-03-25T13:30:09.107Z,10.03
2019-03-25T13:32:38.379Z,12.53
2019-03-25T13:35:07.785Z,10.93
2019-03-25T13:37:37.060Z,8.90
2019-03-25T13:40:07.068Z,9.93
2019-03-25T13:42:36.343Z,12.13
2019-03-25T13:45:07.447Z,11.03
2019-03-25T13:47:36.715Z,13.43
2019-03-25T13:50:07.821Z,9.63
2019-03-25T13:52:37.096Z,11.93
2019-03-25T13:55:07.308Z,11.47
2019-03-25T13:57:36.571Z,12.27
2019-03-25T14:00:07.680Z,11.40
2019-03-25T14:02:37.926Z,8.53
2019-03-25T14:05:07.932Z,5.37
2019-03-25T14:07:37.196Z,10.83
2019-03-25T14:10:08.016Z,20.10
2019-03-25T14:12:37.283Z,13.20
2019-03-25T14:15:08.695Z,12.47
2019-03-25T14:17:37.973Z,16.97
2019-03-25T14:20:08.289Z,15.47
2019-03-25T14:22:37.544Z,7.10
2019-03-25T14:25:07.467Z,15.63
2019-03-25T14:27:36.729Z,11.83
2019-03-25T14:30:14.614Z,16.20
2019-03-25T14:32:39.017Z,11.90
2019-03-25T14:35:08.447Z,13.00
2019-03-25T14:37:37.718Z,20.37
2019-03-25T14:40:07.837Z,18.10
2019-03-25T14:42:37.107Z,9.20
2019-03-25T14:45:08.117Z,12.07
2019-03-25T14:47:37.468Z,12.77
2019-03-25T14:50:07.877Z,14.60
2019-03-25T14:52:37.156Z,12.90
2019-03-25T14:55:06.557Z,14.87
2019-03-25T14:57:35.820Z,16.27
2019-03-25T15:00:08.149Z,20.50
2019-03-25T15:02:37.415Z,14.43
2019-03-25T15:05:07.628Z,17.43
2019-03-25T15:07:36.900Z,16.20
2019-03-25T15:10:07.416Z,17.40
2019-03-25T15:12:36.683Z,17.67
2019-03-25T15:15:07.509Z,18.03
2019-03-25T15:17:37.033Z,19.50
2019-03-25T15:20:10.152Z,19.33
2019-03-25T15:22:39.492Z,13.37
2019-03-25T15:25:09.509Z,18.90
2019-03-25T15:27:38.777Z,19.73
2019-03-25T15:30:09.570Z,19.10
2019-03-25T15:32:38.839Z,12.57
2019-03-25T15:35:09.173Z,17.33
2019-03-25T15:37:38.441Z,12.17
2019-03-25T15:40:10.075Z,17.13
2019-03-25T15:42:39.374Z,12.77
2019-03-25T15:45:09.292Z,16.80
2019-03-25T15:47:39.308Z,18.20
2019-03-25T15:50:10.685Z,21.60
2019-03-25T15:52:41.421Z,20.17
2019-03-25T15:55:11.331Z,26.97
2019-03-25T15:57:40.595Z,18.00
2019-03-25T16:00:16.381Z,16.23
2019-03-25T16:02:45.646Z,15.87
2019-03-25T16:05:15.783Z,26.47
2019-03-25T16:07:45.057Z,22.57
2019-03-25T16:10:16.278Z,22.23
2019-03-25T16:12:46.706Z,23.23
2019-03-25T16:15:37.208Z,16.87
2019-03-25T16:18:07.535Z,25.07
2019-03-25T16:20:37.070Z,13.80
2019-03-25T16:23:06.340Z,19.97
2019-03-25T16:25:35.625Z,15.37
2019-03-25T16:28:04.910Z,18.63
2019-03-25T16:30:34.210Z,19.83
2019-03-25T16:33:03.473Z,15.30
2019-03-25T16:35:32.805Z,21.30
2019-03-25T16:38:02.088Z,16.10
2019-03-25T16:40:31.356Z,16.87
2019-03-25T16:43:00.637Z,17.83
2019-03-25T16:45:29.904Z,70.00
2019-03-25T16:47:59.193Z,58.03
2019-03-25T16:50:28.519Z,54.37
2019-03-25T16:52:57.827Z,18.63
2019-03-25T16:55:27.089Z,23.13
2019-03-25T16:57:57.902Z,22.60
2019-03-25T17:00:27.853Z,25.43
2019-03-25T17:02:57.238Z,29.63
2019-03-25T17:05:26.501Z,29.60
2019-03-25T17:07:56.308Z,23.30
2019-03-25T17:10:25.684Z,25.77
2019-03-25T17:12:54.991Z,17.77
2019-03-25T17:15:25.132Z,26.20
2019-03-25T17:17:54.413Z,23.10
2019-03-25T17:20:23.768Z,22.13
2019-03-25T17:22:53.041Z,26.57
2019-03-25T17:25:22.327Z,17.13
2019-03-25T17:27:51.597Z,15.07
2019-03-25T17:30:21.103Z,24.73
2019-03-25T17:32:50.392Z,22.13
2019-03-25T17:35:19.702Z,20.77
2019-03-25T17:37:48.977Z,20.03
2019-03-25T17:40:18.419Z,19.93
2019-03-25T17:42:47.782Z,14.10
2019-03-25T17:45:17.486Z,9.63
2019-03-25T17:47:46.771Z,12.13
2019-03-25T17:50:16.209Z,10.07
2019-03-25T17:52:45.484Z,15.30
2019-03-25T17:55:14.894Z,11.87
2019-03-25T17:57:44.164Z,8.60
2019-03-25T18:00:14.035Z,12.13
2019-03-25T18:02:43.322Z,12.40
2019-03-25T18:05:12.595Z,12.13
2019-03-25T18:07:41.878Z,10.77
2019-03-25T18:10:11.224Z,8.10
2019-03-25T18:12:40.499Z,17.83
2019-03-25T18:15:13.337Z,13.77
2019-03-25T18:17:42.612Z,11.13
2019-03-25T18:20:18.620Z,9.53
2019-03-25T18:22:43.167Z,13.03
2019-03-25T18:25:12.439Z,27.97
2019-03-25T18:27:41.716Z,12.73
2019-03-25T18:30:11.430Z,9.60
2019-03-25T18:32:40.697Z,9.80
2019-03-25T18:35:13.062Z,8.40
2019-03-25T18:37:42.320Z,8.00
2019-03-25T18:40:11.656Z,7.30
2019-03-25T18:42:40.935Z,8.17
2019-03-25T18:45:10.340Z,9.63
2019-03-25T18:47:39.612Z,13.03
2019-03-25T18:50:08.894Z,7.93
2019-03-25T18:52:38.159Z,7.90
2019-03-25T18:55:07.518Z,12.13
2019-03-25T18:57:36.789Z,10.43
2019-03-25T19:00:08.794Z,9.50
2019-03-25T19:02:38.087Z,14.27
2019-03-25T19:05:07.853Z,16.30
2019-03-25T19:07:38.233Z,13.07
2019-03-25T19:10:14.453Z,12.97
2019-03-25T19:12:43.244Z,18.17
2019-03-25T19:15:12.590Z,14.47
2019-03-25T19:17:41.880Z,20.33
2019-03-25T19:20:11.249Z,9.80
2019-03-25T19:22:40.517Z,16.13
2019-03-25T19:25:10.772Z,13.17
2019-03-25T19:27:40.053Z,28.13
2019-03-25T19:30:10.871Z,15.83
2019-03-25T19:32:40.248Z,23.43
2019-03-25T19:35:10.333Z,14.07
2019-03-25T19:37:39.600Z,22.23
2019-03-25T19:40:10.499Z,13.83
2019-03-25T19:42:39.757Z,21.30
2019-03-25T19:45:09.405Z,14.83
2019-03-25T19:47:38.676Z,15.90
2019-03-25T19:50:09.346Z,14.70
2019-03-25T19:52:38.716Z,14.73
2019-03-25T19:55:08.139Z,13.50
2019-03-25T19:57:37.636Z,12.50
2019-03-25T20:00:09.091Z,13.77
2019-03-25T20:02:38.355Z,13.70
2019-03-25T20:05:08.584Z,13.97
2019-03-25T20:07:38.017Z,13.70
2019-03-25T20:10:10.359Z,13.03
2019-03-25T20:12:39.678Z,24.27
2019-03-25T20:15:09.191Z,15.97
2019-03-25T20:17:38.460Z,14.93
2019-03-25T20:20:07.980Z,17.83
2019-03-25T20:22:37.263Z,24.13
2019-03-25T20:25:07.784Z,21.13
2019-03-25T20:27:37.070Z,19.77
2019-03-25T20:30:12.640Z,15.67
2019-03-25T20:32:42.053Z,21.03
2019-03-25T20:35:11.423Z,16.83
2019-03-25T20:37:40.764Z,17.27
2019-03-25T20:40:10.581Z,17.77
2019-03-25T20:42:39.869Z,19.60
2019-03-25T20:45:10.959Z,24.03
2019-03-25T20:47:40.231Z,22.57
2019-03-25T20:50:09.841Z,18.43
2019-03-25T20:52:39.123Z,14.77
2019-03-25T20:55:08.819Z,18.10
2019-03-25T20:57:40.520Z,34.40
2019-03-25T21:00:11.311Z,17.00
2019-03-25T21:02:45.300Z,32.60
2019-03-25T21:05:12.620Z,18.90
2019-03-25T21:07:42.044Z,28.37
2019-03-25T21:10:11.665Z,21.07
2019-03-25T21:12:40.971Z,21.27
2019-03-25T21:15:10.685Z,16.37
2019-03-25T21:17:39.976Z,19.43
2019-03-25T21:20:09.545Z,29.00
2019-03-25T21:22:38.852Z,26.87
2019-03-25T21:25:08.407Z,22.37
2019-03-25T21:27:37.822Z,25.97
2019-03-25T21:30:08.367Z,18.93
2019-03-25T21:32:37.680Z,21.67
2019-03-25T21:35:07.235Z,30.63
2019-03-25T21:37:36.607Z,16.17
2019-03-25T21:40:08.067Z,23.13
2019-03-25T21:42:37.390Z,24.23
2019-03-25T21:45:08.925Z,21.83
2019-03-25T21:47:38.221Z,26.77
2019-03-25T21:50:07.812Z,28.77
2019-03-25T21:52:37.061Z,26.10
2019-03-25T21:55:07.071Z,24.33
2019-03-25T21:57:36.398Z,22.00
2019-03-25T22:00:06.966Z,27.13
2019-03-25T22:02:36.349Z,30.83
2019-03-25T22:05:07.166Z,20.13
2019-03-25T22:07:36.512Z,24.93
2019-03-25T22:10:07.026Z,22.30
2019-03-25T22:12:36.296Z,17.97
2019-03-25T22:15:11.629Z,24.00
2019-03-25T22:17:40.907Z,21.00
2019-03-25T22:20:10.822Z,31.07
2019-03-25T22:22:40.097Z,21.97
2019-03-25T22:25:10.108Z,22.90
2019-03-25T22:27:39.382Z,20.53
2019-03-25T22:30:08.992Z,27.70
2019-03-25T22:32:38.313Z,36.30
2019-03-25T22:35:08.923Z,19.93
2019-03-25T22:37:38.202Z,18.27
2019-03-25T22:40:08.215Z,29.23
2019-03-25T22:42:37.491Z,29.33
2019-03-25T22:45:06.929Z,29.00
2019-03-25T22:47:36.569Z,24.63
2019-03-25T22:50:07.740Z,42.67
2019-03-25T22:52:37.014Z,36.37
2019-03-25T22:55:07.321Z,27.90
2019-03-25T22:57:36.589Z,23.97
2019-03-25T23:00:09.436Z,25.77
2019-03-25T23:02:40.026Z,26.30
2019-03-25T23:05:09.408Z,20.57
2019-03-25T23:07:38.690Z,35.03
2019-03-25T23:10:08.131Z,42.17
2019-03-25T23:12:37.392Z,26.73
2019-03-25T23:15:06.808Z,28.87
2019-03-25T23:17:36.066Z,25.23
2019-03-25T23:20:06.274Z,26.43
2019-03-25T23:22:35.542Z,30.27
2019-03-25T23:25:06.372Z,37.73
2019-03-25T23:27:35.639Z,34.47
2019-03-25T23:30:06.250Z,40.70
2019-03-25T23:32:35.581Z,36.23
2019-03-25T23:35:06.096Z,37.37
2019-03-25T23:37:35.374Z,44.63
2019-03-25T23:40:07.639Z,31.73
2019-03-25T23:42:36.912Z,31.73
2019-03-25T23:45:07.721Z,30.73
2019-03-25T23:47:36.983Z,31.23
2019-03-25T23:50:06.698Z,26.03
2019-03-25T23:52:35.966Z,30.97
2019-03-25T23:55:06.582Z,32.93
2019-03-25T23:57:35.848Z,33.67
